Weather History for Newport Airport, OR

Change the Weather History Date:

Friday, December 28, 2012

  Actual Average Record
Temperature  
Mean Temperature 40 °F -  
Max Temperature 42 °F 48 °F 55 °F (2001)
Min Temperature 37 °F 39 °F 32 °F (2006)
Degree Days  
Heating Degree Days 24    
Moisture  
Dew Point 40 °F    
Average Humidity 93    
Maximum Humidity 100    
Minimum Humidity 87    
Precipitation  
Precipitation 0.00 in - - ()
Sea Level Pressure  
Sea Level Pressure 30.13 in    
Wind  
Wind Speed 5 mph (East)    
Max Wind Speed 8 mph    
Max Gust Speed -    
Visibility 10 miles    
Events      
Averages and records for this station are not official NWS values.
T = Trace of Precipitation, MM = Missing Value Source: NWS Daily Summary

Daily Weather History Graph

Daily Weather History Graph

Search for Another Location

Airport:

Trip Planner

Search our weather history database for the weather conditions in past years. The results will help you decide how hot, cold, wet, or windy it might be!

Date:

Astronomy

Dec. 28, 2012 Rise Set
Actual Time 7:52 AM PST 4:43 PM PST
Civil Twilight 7:19 AM PST 5:17 PM PST
Nautical Twilight 6:42 AM PST 5:54 PM PST
Astronomical Twilight 6:06 AM PST 6:29 PM PST
Moon 5:28 PM PST (12/28) 7:48 AM PST (12/28)
Length of Visible Light 9h 58m
Length of Day
8h 51m
Full, 100% of the Moon is Illuminated
Dec 28
Full
Jan 4
Last Quarter
Jan 11
New
Jan 18
First Quarter
Jan 26
Full

Hourly Weather History & Observations

Time (PST) Temp. Windchill Dew Point Humidity Pressure Visibility Wind Dir Wind Speed Gust Speed Precip Events Conditions
12:15 AM 42.8 °F - 41.0 °F 93% 30.16 in 10.0 mi Calm Calm - N/A   Overcast
12:35 AM 42.8 °F 40.1 °F 41.0 °F 93% 30.16 in 10.0 mi East 4.6 mph - N/A   Overcast
12:55 AM 42.8 °F 40.1 °F 41.0 °F 93% 30.15 in 10.0 mi East 4.6 mph - N/A   Overcast
1:15 AM 42.8 °F 40.1 °F 41.0 °F 93% 30.15 in 10.0 mi ESE 4.6 mph - N/A   Overcast
1:35 AM 42.8 °F 40.1 °F 41.0 °F 93% 30.15 in 10.0 mi ESE 4.6 mph - N/A   Overcast
1:55 AM 42.8 °F 41.1 °F 41.0 °F 93% 30.15 in 10.0 mi East 3.5 mph - N/A   Overcast
2:15 AM 42.8 °F 39.3 °F 41.0 °F 93% 30.14 in 10.0 mi East 5.8 mph - N/A   Overcast
2:35 AM 42.8 °F 39.3 °F 41.0 °F 93% 30.14 in 10.0 mi East 5.8 mph - N/A   Overcast
3:15 AM 42.8 °F 39.3 °F 41.0 °F 93% 30.13 in 10.0 mi East 5.8 mph - N/A   Light Drizzle
3:35 AM 42.8 °F 39.3 °F 41.0 °F 93% 30.13 in 10.0 mi East 5.8 mph - N/A   Light Drizzle
3:55 AM 42.8 °F 38.6 °F 41.0 °F 93% 30.12 in 10.0 mi East 6.9 mph - N/A   Light Drizzle
4:15 AM 42.8 °F 38.0 °F 41.0 °F 93% 30.11 in 10.0 mi East 8.1 mph - N/A   Overcast
4:35 AM 42.8 °F 39.3 °F 41.0 °F 93% 30.10 in 10.0 mi East 5.8 mph - N/A   Overcast
4:55 AM 42.8 °F 38.6 °F 41.0 °F 93% 30.10 in 10.0 mi East 6.9 mph - N/A   Overcast
5:15 AM 42.8 °F 38.6 °F 41.0 °F 93% 30.10 in 10.0 mi East 6.9 mph - N/A   Light Drizzle
5:35 AM 42.8 °F 38.6 °F 41.0 °F 93% 30.10 in 10.0 mi East 6.9 mph - N/A   Light Drizzle
5:55 AM 41.0 °F 35.8 °F 41.0 °F 100% 30.10 in 10.0 mi East 8.1 mph - N/A   Light Drizzle
6:15 AM 41.0 °F 35.8 °F 41.0 °F 100% 30.09 in 10.0 mi East 8.1 mph - N/A   Overcast
6:35 AM 41.0 °F 36.4 °F 41.0 °F 100% 30.10 in 10.0 mi East 6.9 mph - N/A   Overcast
6:55 AM 41.0 °F 38.0 °F 41.0 °F 100% 30.10 in 10.0 mi East 4.6 mph - N/A   Light Drizzle
7:15 AM 41.0 °F 37.1 °F 41.0 °F 100% 30.10 in 10.0 mi East 5.8 mph - N/A   Light Drizzle
7:35 AM 41.0 °F 36.4 °F 39.2 °F 93% 30.10 in 10.0 mi East 6.9 mph - N/A   Light Drizzle
7:55 AM 41.0 °F 36.4 °F 39.2 °F 93% 30.11 in 10.0 mi East 6.9 mph - N/A   Drizzle
8:15 AM 41.0 °F 36.4 °F 39.2 °F 93% 30.11 in 10.0 mi East 6.9 mph - N/A   Drizzle
8:35 AM 41.0 °F 36.4 °F 39.2 °F 93% 30.11 in 10.0 mi East 6.9 mph - N/A   Drizzle
8:55 AM 41.0 °F 38.0 °F 39.2 °F 93% 30.12 in 10.0 mi East 4.6 mph - N/A   Drizzle
9:15 AM 41.0 °F 39.0 °F 39.2 °F 93% 30.12 in 10.0 mi East 3.5 mph - N/A   Light Drizzle
9:35 AM 41.0 °F 39.0 °F 41.0 °F 100% 30.13 in 10.0 mi East 3.5 mph - N/A   Light Drizzle
9:55 AM 41.0 °F 38.0 °F 41.0 °F 100% 30.13 in 10.0 mi East 4.6 mph - N/A   Light Drizzle
10:15 AM 41.0 °F 37.1 °F 41.0 °F 100% 30.14 in 10.0 mi East 5.8 mph - N/A   Light Drizzle
10:35 AM 41.0 °F 37.1 °F 41.0 °F 100% 30.14 in 10.0 mi East 5.8 mph - N/A   Light Drizzle
10:55 AM 42.8 °F 38.6 °F 41.0 °F 93% 30.13 in 10.0 mi East 6.9 mph - N/A   Overcast
11:15 AM 42.8 °F 38.6 °F 41.0 °F 93% 30.13 in 10.0 mi East 6.9 mph - N/A   Overcast
11:35 AM 42.8 °F 38.6 °F 41.0 °F 93% 30.13 in 10.0 mi East 6.9 mph - N/A   Overcast
11:55 AM 42.8 °F 38.6 °F 41.0 °F 93% 30.13 in 10.0 mi East 6.9 mph - N/A   Mostly Cloudy
12:15 PM 42.8 °F 38.6 °F 41.0 °F 93% 30.12 in 10.0 mi East 6.9 mph - N/A   Overcast
12:35 PM 42.8 °F 38.6 °F 41.0 °F 93% 30.11 in 10.0 mi East 6.9 mph - N/A   Overcast
12:55 PM 42.8 °F 39.3 °F 41.0 °F 93% 30.11 in 10.0 mi East 5.8 mph - N/A   Light Drizzle
1:15 PM 42.8 °F 39.3 °F 41.0 °F 93% 30.11 in 10.0 mi East 5.8 mph - N/A   Light Drizzle
1:35 PM 42.8 °F 38.6 °F 41.0 °F 93% 30.11 in 10.0 mi East 6.9 mph - N/A   Light Drizzle
1:55 PM 42.8 °F 38.6 °F 41.0 °F 93% 30.11 in 10.0 mi East 6.9 mph - N/A   Light Drizzle
2:35 PM 42.8 °F 38.6 °F 41.0 °F 93% 30.11 in 10.0 mi East 6.9 mph - N/A   Light Drizzle
2:55 PM 42.8 °F 39.3 °F 41.0 °F 93% 30.11 in 10.0 mi East 5.8 mph - N/A   Overcast
3:15 PM 42.8 °F 38.6 °F 41.0 °F 93% 30.12 in 10.0 mi East 6.9 mph - N/A   Overcast
3:55 PM 42.8 °F 41.1 °F 41.0 °F 93% 30.12 in 10.0 mi East 3.5 mph - N/A   Overcast
4:15 PM 42.8 °F 40.1 °F 41.0 °F 93% 30.12 in 10.0 mi East 4.6 mph - N/A   Overcast
4:35 PM 42.8 °F 40.1 °F 41.0 °F 93% 30.12 in 10.0 mi East 4.6 mph - N/A   Scattered Clouds
4:55 PM 41.0 °F 37.1 °F 39.2 °F 93% 30.12 in 10.0 mi East 5.8 mph - N/A   Clear
5:15 PM 41.0 °F 38.0 °F 39.2 °F 93% 30.12 in 10.0 mi East 4.6 mph - N/A   Scattered Clouds
5:35 PM 41.0 °F 37.1 °F 39.2 °F 93% 30.12 in 10.0 mi East 5.8 mph - N/A   Mostly Cloudy
5:55 PM 41.0 °F 38.0 °F 39.2 °F 93% 30.12 in 10.0 mi East 4.6 mph - N/A   Overcast
6:15 PM 41.0 °F 38.0 °F 39.2 °F 93% 30.13 in 10.0 mi East 4.6 mph - N/A   Mostly Cloudy
6:35 PM 41.0 °F 37.1 °F 39.2 °F 93% 30.13 in 10.0 mi East 5.8 mph - N/A   Scattered Clouds
6:55 PM 41.0 °F 36.4 °F 39.2 °F 93% 30.13 in 10.0 mi East 6.9 mph - N/A   Overcast
7:15 PM 41.0 °F 37.1 °F 39.2 °F 93% 30.13 in 10.0 mi East 5.8 mph - N/A   Overcast
7:35 PM 41.0 °F 36.4 °F 39.2 °F 93% 30.13 in 10.0 mi East 6.9 mph - N/A   Overcast
7:55 PM 41.0 °F 36.4 °F 39.2 °F 93% 30.13 in 10.0 mi East 6.9 mph - N/A   Scattered Clouds
8:15 PM 41.0 °F 37.1 °F 37.4 °F 87% 30.13 in 10.0 mi East 5.8 mph - N/A   Clear
8:35 PM 41.0 °F 37.1 °F 37.4 °F 87% 30.13 in 10.0 mi East 5.8 mph - N/A   Mostly Cloudy
8:55 PM 41.0 °F 36.4 °F 37.4 °F 87% 30.14 in 10.0 mi East 6.9 mph - N/A   Mostly Cloudy
9:15 PM 41.0 °F 36.4 °F 37.4 °F 87% 30.14 in 10.0 mi East 6.9 mph - N/A   Overcast
9:35 PM 41.0 °F 36.4 °F 37.4 °F 87% 30.14 in 10.0 mi East 6.9 mph - N/A   Overcast
9:55 PM 41.0 °F 37.1 °F 37.4 °F 87% - 10.0 mi East 5.8 mph - N/A   Mostly Cloudy
10:15 PM 41.0 °F 35.8 °F 37.4 °F 87% 30.15 in 10.0 mi East 8.1 mph - N/A   Mostly Cloudy
10:35 PM 39.2 °F 34.2 °F 37.4 °F 93% 30.16 in 10.0 mi East 6.9 mph - N/A   Overcast
10:55 PM 39.2 °F 34.2 °F 37.4 °F 93% 30.16 in 10.0 mi East 6.9 mph - N/A   Overcast
11:15 PM 39.2 °F 34.2 °F 35.6 °F 87% 30.16 in 10.0 mi East 6.9 mph - N/A   Overcast
11:35 PM 39.2 °F 33.6 °F 35.6 °F 87% 30.16 in 10.0 mi East 8.1 mph - N/A   Mostly Cloudy
11:55 PM 37.4 °F 32.1 °F 35.6 °F 93% 30.16 in 10.0 mi East 6.9 mph - N/A   Scattered Clouds